Time;durP1;ratioP1;P1;durP2;ratioP2;P2;SDS_P1;SDS_P2;PMS_P1;PMS_P2;Temp;Humidity;BMP_temperature;BMP_pressure;BME280_temperature;BME280_humidity;BME280_pressure;Samples;Min_cycle;Max_cycle;Signal;HPM_P1;HPM_P2
2022/11/08 00:02:09;;;;;;;5.77;5.00;;;10.00;71.10;9.90;96546.00;;;;5055443;28;20249;-85
2022/11/08 00:04:37;;;;;;;7.70;5.17;;;10.00;70.90;9.90;96547.00;;;;5053895;28;20323;-86
2022/11/08 00:15:19;;;;;;;5.57;4.30;;;10.00;70.90;9.90;96528.00;;;;5058260;28;20735;-86
2022/11/08 00:17:46;;;;;;;4.63;4.23;;;10.00;70.80;9.80;96533.00;;;;5056647;28;20283;-86
2022/11/08 00:20:14;;;;;;;4.43;4.00;;;9.90;70.70;9.80;96528.00;;;;5057044;28;20661;-85
2022/11/08 00:22:41;;;;;;;5.10;4.40;;;9.90;70.80;9.80;96525.00;;;;5067446;28;20269;-86
2022/11/08 00:25:10;;;;;;;5.10;4.70;;;9.90;70.80;9.80;96524.00;;;;5072135;28;20600;-86
2022/11/08 00:27:37;;;;;;;5.73;4.13;;;9.90;70.80;9.80;96527.00;;;;5066285;28;20203;-85
2022/11/08 00:30:06;;;;;;;6.53;4.40;;;9.90;70.80;9.70;96526.00;;;;5075621;28;20227;-86
2022/11/08 00:32:33;;;;;;;4.63;4.23;;;9.90;70.80;9.70;96524.00;;;;5059676;28;20334;-86
2022/11/08 00:35:00;;;;;;;6.30;5.10;;;9.90;70.80;9.70;96524.00;;;;5057205;28;20303;-86
2022/11/08 00:37:28;;;;;;;4.63;4.20;;;9.80;70.80;9.70;96515.00;;;;5055108;28;20684;-86
2022/11/08 00:39:55;;;;;;;4.97;4.50;;;9.80;70.80;9.70;96516.00;;;;5052682;28;20297;-86
2022/11/08 00:42:23;;;;;;;5.40;4.63;;;9.80;70.70;9.70;96516.00;;;;5053697;28;20316;-86
2022/11/08 00:44:50;;;;;;;6.00;4.40;;;9.80;70.80;9.60;96514.00;;;;5064332;28;20315;-86
2022/11/08 00:47:17;;;;;;;5.43;4.27;;;9.70;70.80;9.60;96508.00;;;;5073560;28;20204;-85
2022/11/08 00:49:44;;;;;;;4.23;3.83;;;9.80;70.80;9.60;96509.00;;;;5056001;28;20189;-86
2022/11/08 00:52:11;;;;;;;5.60;3.60;;;9.70;70.70;9.60;96515.00;;;;5061800;28;20307;-85
2022/11/08 00:54:39;;;;;;;4.37;3.70;;;9.70;70.70;9.60;96513.00;;;;5063889;28;20307;-84
2022/11/08 00:57:06;;;;;;;4.20;3.87;;;9.70;70.70;9.50;96508.00;;;;5058571;28;20283;-86
2022/11/08 00:59:33;;;;;;;3.73;3.43;;;9.60;70.60;9.50;96506.00;;;;5062199;28;20299;-86
2022/11/08 01:02:01;;;;;;;4.10;3.53;;;9.60;70.60;9.50;96488.00;;;;5069091;28;20219;-85
2022/11/08 01:04:28;;;;;;;4.20;3.80;;;9.60;70.70;9.50;96498.00;;;;5052595;28;20252;-86
2022/11/08 01:06:55;;;;;;;3.70;3.40;;;9.60;70.90;9.50;96490.00;;;;5054934;28;20279;-86
2022/11/08 01:09:22;;;;;;;4.53;4.07;;;9.60;71.10;9.50;96489.00;;;;5060718;28;20202;-86
2022/11/08 01:11:50;;;;;;;5.87;3.73;;;9.60;71.10;9.40;96487.00;;;;5055057;28;20303;-86
2022/11/08 01:14:18;;;;;;;4.10;3.67;;;9.50;71.10;9.40;96498.00;;;;5061847;28;20227;-86
2022/11/08 01:16:45;;;;;;;3.73;3.43;;;9.50;71.10;9.40;96490.00;;;;5060733;28;20220;-86
2022/11/08 01:19:12;;;;;;;4.70;4.00;;;9.50;71.10;9.40;96487.00;;;;5060893;28;20228;-85
2022/11/08 01:21:39;;;;;;;3.53;3.23;;;9.50;71.40;9.40;96484.00;;;;5051233;28;20201;-86
2022/11/08 01:24:07;;;;;;;3.70;3.40;;;9.50;71.70;9.40;96480.00;;;;5056081;28;20292;-86
2022/11/08 01:26:34;;;;;;;4.30;3.90;;;9.50;71.90;9.40;96474.00;;;;5058118;22;20895;-82
2022/11/08 01:29:03;;;;;;;4.17;3.33;;;9.50;72.10;9.40;96474.00;;;;5043387;28;20205;-82
2022/11/08 01:31:32;;;;;;;4.90;3.80;;;9.50;72.10;9.40;96467.00;;;;5050101;28;20201;-82
2022/11/08 01:34:01;;;;;;;3.47;3.23;;;9.50;72.20;9.40;96468.00;;;;5032286;28;20256;-82
2022/11/08 01:36:29;;;;;;;3.67;3.30;;;9.50;72.00;9.40;96464.00;;;;5037291;28;20573;-81
2022/11/08 01:38:57;;;;;;;3.73;3.43;;;9.50;71.90;9.40;96465.00;;;;5031876;28;20209;-82
2022/11/08 01:41:27;;;;;;;3.77;3.37;;;9.50;71.70;9.40;96450.00;;;;5035205;28;20288;-82
2022/11/08 01:43:56;;;;;;;3.80;3.50;;;9.50;71.70;9.40;96451.00;;;;5038296;28;20586;-82
2022/11/08 01:46:41;;;;;;;4.43;3.23;;;9.50;71.70;9.40;96456.00;;;;5034775;28;20346;-79
2022/11/08 01:49:31;;;;;;;3.33;3.03;;;9.50;71.50;9.40;96451.00;;;;5033102;28;20221;-79
2022/11/08 01:52:23;;;;;;;3.57;3.27;;;9.50;71.40;9.40;96451.00;;;;5032951;28;20280;-79
2022/11/08 01:55:00;;;;;;;3.83;3.17;;;9.50;71.30;9.40;96453.00;;;;5027855;28;20316;-79
2022/11/08 01:57:38;;;;;;;3.93;3.13;;;9.50;71.20;9.30;96456.00;;;;5032458;28;20280;-79
2022/11/08 02:00:11;;;;;;;4.03;3.40;;;9.50;71.10;9.30;96452.00;;;;5033037;28;20225;-79
2022/11/08 02:02:43;;;;;;;3.70;3.33;;;9.50;71.10;9.30;96432.00;;;;5033354;28;20203;-79
2022/11/08 02:05:26;;;;;;;4.83;3.30;;;9.40;71.00;9.30;96433.00;;;;5028772;28;20774;-80
2022/11/08 02:08:00;;;;;;;4.43;3.33;;;9.40;70.90;9.30;96433.00;;;;5018372;28;20229;-80
2022/11/08 02:10:35;;;;;;;3.77;3.40;;;9.40;70.90;9.20;96431.00;;;;5027220;28;20281;-79
2022/11/08 02:13:03;;;;;;;3.80;2.90;;;9.40;70.90;9.20;96431.00;;;;5033092;28;20239;-79
2022/11/08 02:15:30;;;;;;;5.63;3.33;;;9.30;70.90;9.20;96436.00;;;;5030698;28;20273;-79
2022/11/08 02:17:59;;;;;;;3.47;3.17;;;9.30;70.90;9.20;96425.00;;;;5032065;28;20201;-79
2022/11/08 02:20:27;;;;;;;3.60;3.30;;;9.30;70.90;9.20;96427.00;;;;5020599;28;20291;-79
2022/11/08 02:23:09;;;;;;;2.90;2.70;;;9.30;70.90;9.10;96414.00;;;;5024916;28;20237;-79
2022/11/08 02:25:38;;;;;;;3.10;2.77;;;9.30;71.10;9.10;96417.00;;;;5028349;28;21052;-79
2022/11/08 02:28:05;;;;;;;3.43;2.60;;;9.30;71.30;9.10;96424.00;;;;5031156;28;20225;-79
2022/11/08 02:30:34;;;;;;;3.13;2.80;;;9.30;71.60;9.10;96422.00;;;;5031239;28;20347;-79
2022/11/08 02:33:14;;;;;;;4.00;2.77;;;9.20;71.50;9.10;96418.00;;;;5031663;28;20289;-79
2022/11/08 02:35:42;;;;;;;2.87;2.53;;;9.20;72.20;9.10;96411.00;;;;5029512;28;20815;-79
2022/11/08 02:38:09;;;;;;;4.03;2.80;;;9.20;71.60;9.10;96422.00;;;;5031825;28;20195;-79
2022/11/08 02:40:49;;;;;;;2.27;2.17;;;9.20;71.60;9.10;96426.00;;;;5023524;28;20244;-79
2022/11/08 02:43:16;;;;;;;2.90;2.60;;;9.20;71.70;9.00;96423.00;;;;5027388;28;20236;-79
2022/11/08 02:45:43;;;;;;;3.33;2.40;;;9.20;71.60;9.10;96416.00;;;;5031844;28;20285;-79
2022/11/08 02:48:11;;;;;;;2.30;2.10;;;9.20;71.50;9.10;96411.00;;;;5031724;28;20201;-79
2022/11/08 02:50:39;;;;;;;2.30;2.10;;;9.20;71.70;9.00;96412.00;;;;5031584;28;20197;-79
2022/11/08 02:53:07;;;;;;;4.00;2.40;;;9.20;71.90;9.00;96401.00;;;;5028951;28;20197;-79
2022/11/08 02:55:35;;;;;;;2.37;2.10;;;9.20;71.80;9.00;96407.00;;;;5031519;28;20694;-79
2022/11/08 02:58:04;;;;;;;2.33;2.10;;;9.20;71.70;9.00;96396.00;;;;5021618;28;20284;-79
2022/11/08 03:00:32;;;;;;;2.50;1.93;;;9.10;71.40;9.00;96388.00;;;;5029799;28;20721;-79
2022/11/08 03:03:00;;;;;;;2.60;2.10;;;9.20;71.30;9.00;96396.00;;;;5032348;28;20212;-79
2022/11/08 03:05:29;;;;;;;1.93;1.80;;;9.10;71.30;9.00;96393.00;;;;5032029;28;20221;-79
2022/11/08 03:07:57;;;;;;;1.97;1.80;;;9.10;71.50;9.00;96389.00;;;;5032105;28;20205;-79
2022/11/08 03:10:26;;;;;;;2.17;2.07;;;9.10;71.80;9.00;96391.00;;;;5021679;28;20289;-80
2022/11/08 03:12:55;;;;;;;2.70;2.10;;;9.10;72.00;9.00;96392.00;;;;5030272;28;20236;-79
2022/11/08 03:15:25;;;;;;;2.00;1.90;;;9.10;72.20;9.00;96388.00;;;;5028122;28;20773;-79
2022/11/08 03:17:53;;;;;;;2.30;2.10;;;9.10;72.20;9.00;96390.00;;;;5031568;28;20205;-79
2022/11/08 03:20:20;;;;;;;1.87;1.77;;;9.10;72.10;9.00;96382.00;;;;5027377;28;20292;-80
2022/11/08 03:22:47;;;;;;;2.33;2.10;;;9.20;72.20;9.00;96389.00;;;;5031760;28;20255;-79
2022/11/08 03:25:15;;;;;;;3.53;2.00;;;9.10;71.80;9.00;96381.00;;;;5023138;28;20260;-79
2022/11/08 03:27:42;;;;;;;1.90;1.70;;;9.10;71.60;9.00;96380.00;;;;5031505;28;20236;-79
2022/11/08 03:30:10;;;;;;;2.07;1.93;;;9.10;71.60;9.00;96383.00;;;;5031681;28;20201;-79
2022/11/08 03:32:39;;;;;;;2.30;1.80;;;9.10;71.50;8.90;96379.00;;;;5029064;28;20202;-79
2022/11/08 03:35:08;;;;;;;2.03;1.90;;;9.10;71.40;8.90;96389.00;;;;5028629;28;20240;-79
2022/11/08 03:37:35;;;;;;;2.13;1.93;;;9.10;71.40;8.90;96380.00;;;;5031620;28;20630;-79
2022/11/08 03:40:02;;;;;;;2.33;2.13;;;9.10;71.30;8.90;96375.00;;;;5020419;28;20636;-79
2022/11/08 03:42:29;;;;;;;2.00;1.90;;;9.10;71.30;8.90;96373.00;;;;5031547;28;20267;-79
2022/11/08 03:44:56;;;;;;;3.83;2.20;;;9.10;71.30;8.80;96379.00;;;;5032838;28;20823;-79
2022/11/08 03:47:24;;;;;;;2.37;1.80;;;9.00;71.30;8.80;96378.00;;;;5033638;28;20221;-79
2022/11/08 03:49:52;;;;;;;1.63;1.53;;;9.00;71.30;8.80;96380.00;;;;5028511;28;20201;-79
2022/11/08 03:52:19;;;;;;;1.60;1.50;;;9.00;71.20;8.80;96383.00;;;;5035070;28;20193;-79
2022/11/08 03:54:47;;;;;;;2.47;1.87;;;9.00;71.10;8.80;96380.00;;;;5022416;28;20249;-79
2022/11/08 03:57:14;;;;;;;1.60;1.50;;;9.00;71.00;8.70;96388.00;;;;5034158;28;20708;-79
2022/11/08 03:59:41;;;;;;;1.80;1.70;;;8.90;70.90;8.70;96377.00;;;;5034327;28;20299;-79
2022/11/08 04:02:08;;;;;;;1.80;1.70;;;8.90;70.80;8.70;96374.00;;;;5036011;28;20628;-80
2022/11/08 04:04:35;;;;;;;2.03;1.83;;;8.90;70.80;8.70;96376.00;;;;5031018;28;20271;-79
2022/11/08 04:07:04;;;;;;;2.30;2.10;;;8.90;70.80;8.60;96369.00;;;;5035590;28;20307;-79
2022/11/08 04:09:31;;;;;;;2.27;1.60;;;8.80;70.70;8.60;96366.00;;;;5033005;28;20255;-79
2022/11/08 04:22:56;;;;;;;3.73;1.90;;;8.70;71.20;8.50;96350.00;;;;5031043;28;20204;-79
2022/11/08 04:25:24;;;;;;;1.83;1.73;;;8.70;71.10;8.40;96355.00;;;;5033272;28;20242;-79
2022/11/08 04:27:51;;;;;;;1.90;1.70;;;8.70;71.20;8.50;96360.00;;;;5034741;28;20225;-80
2022/11/08 04:30:18;;;;;;;1.80;1.70;;;8.60;71.20;8.40;96356.00;;;;5037077;28;20327;-80
2022/11/08 04:32:45;;;;;;;2.90;2.30;;;8.60;71.20;8.40;96349.00;;;;5037126;28;20232;-80
2022/11/08 04:35:12;;;;;;;1.87;1.70;;;8.60;71.20;8.40;96345.00;;;;5037171;28;20910;-80
2022/11/08 04:37:40;;;;;;;2.93;2.10;;;8.60;71.30;8.40;96348.00;;;;5034637;28;20210;-80
2022/11/08 04:40:11;;;;;;;2.47;2.00;;;8.60;71.50;8.40;96337.00;;;;5032323;28;20221;-80
2022/11/08 04:42:43;;;;;;;2.20;2.00;;;8.60;71.50;8.40;96332.00;;;;5036816;28;20221;-80
2022/11/08 04:45:10;;;;;;;1.90;1.80;;;8.60;71.50;8.40;96345.00;;;;5035798;28;20240;-80
2022/11/08 04:47:38;;;;;;;2.10;2.00;;;8.60;71.60;8.40;96344.00;;;;5038435;28;20228;-80
2022/11/08 04:50:06;;;;;;;2.20;1.90;;;8.60;71.80;8.40;96341.00;;;;5038646;28;20236;-80
2022/11/08 04:52:33;;;;;;;3.77;1.90;;;8.60;72.00;8.40;96331.00;;;;5030126;28;20576;-80
2022/11/08 04:55:00;;;;;;;2.17;1.97;;;8.50;72.10;8.40;96338.00;;;;5035116;28;20221;-80
2022/11/08 04:57:30;;;;;;;3.03;2.10;;;8.60;72.30;8.40;96336.00;;;;5035173;28;20285;-80
2022/11/08 04:59:57;;;;;;;3.33;2.30;;;8.60;72.50;8.40;96326.00;;;;5036706;28;20201;-80
2022/11/08 05:02:24;;;;;;;2.17;1.93;;;8.60;72.50;8.40;96329.00;;;;5035208;28;20280;-80
2022/11/08 05:04:51;;;;;;;2.00;1.80;;;8.60;72.70;8.50;96336.00;;;;5033575;28;20248;-80
2022/11/08 05:07:19;;;;;;;1.63;1.53;;;8.60;72.90;8.50;96312.00;;;;5031663;28;20281;-80
2022/11/08 05:09:46;;;;;;;1.87;1.63;;;8.60;73.00;8.50;96317.00;;;;5033946;28;20249;-80
2022/11/08 05:12:13;;;;;;;2.00;1.90;;;8.60;73.00;8.50;96334.00;;;;5035690;28;20550;-80
2022/11/08 05:14:42;;;;;;;1.90;1.80;;;8.60;73.20;8.50;96328.00;;;;5026951;28;20272;-81
2022/11/08 05:17:09;;;;;;;2.30;2.10;;;8.70;73.20;8.50;96315.00;;;;5030803;28;20277;-80
2022/11/08 05:25:09;;;;;;;1.87;1.77;;;8.70;73.30;8.60;96320.00;;;;5031276;28;20712;-80
2022/11/08 05:27:36;;;;;;;2.20;2.00;;;8.70;73.10;8.60;96314.00;;;;5028086;28;20256;-80
2022/11/08 05:30:07;;;;;;;1.90;1.80;;;8.80;73.00;8.60;96320.00;;;;5034522;28;20190;-80
2022/11/08 05:32:34;;;;;;;2.00;1.90;;;8.80;73.00;8.60;96323.00;;;;5030878;28;20253;-80
2022/11/08 05:35:02;;;;;;;2.00;1.80;;;8.80;73.10;8.60;96326.00;;;;5037076;28;20217;-82
2022/11/08 05:37:29;;;;;;;1.87;1.77;;;8.80;73.00;8.60;96318.00;;;;5041043;28;20193;-82
2022/11/08 05:39:56;;;;;;;2.17;1.97;;;8.80;72.70;8.60;96319.00;;;;5039195;28;20288;-81
2022/11/08 05:42:23;;;;;;;1.90;1.80;;;8.80;72.70;8.60;96321.00;;;;5033881;28;20618;-82
2022/11/08 05:44:51;;;;;;;3.10;1.77;;;8.80;72.80;8.60;96309.00;;;;5037272;28;20267;-82
2022/11/08 05:47:19;;;;;;;2.33;2.00;;;8.80;72.60;8.60;96311.00;;;;5039023;28;20228;-80
2022/11/08 05:49:46;;;;;;;2.20;2.03;;;8.80;72.40;8.60;96315.00;;;;5036123;28;20848;-81
2022/11/08 05:52:14;;;;;;;1.73;1.63;;;8.80;72.40;8.60;96318.00;;;;5041423;28;20213;-81
2022/11/08 05:54:41;;;;;;;2.80;1.80;;;8.80;72.30;8.60;96313.00;;;;5036244;28;20238;-81
2022/11/08 05:57:08;;;;;;;2.37;2.00;;;8.80;72.40;8.60;96316.00;;;;5037769;28;20615;-80
2022/11/08 05:59:35;;;;;;;3.13;1.90;;;8.80;72.40;8.60;96308.00;;;;5024630;28;20190;-81
2022/11/08 06:02:02;;;;;;;2.70;1.97;;;8.80;72.40;8.60;96308.00;;;;5032111;28;20220;-80
2022/11/08 06:04:31;;;;;;;2.33;2.03;;;8.80;72.30;8.60;96306.00;;;;5036620;28;20257;-81
2022/11/08 06:06:58;;;;;;;1.93;1.83;;;8.80;72.30;8.60;96321.00;;;;5028041;28;20309;-81
2022/11/08 06:09:25;;;;;;;2.27;2.07;;;8.70;72.10;8.60;96315.00;;;;5035660;28;20698;-81
2022/11/08 06:11:53;;;;;;;1.83;1.70;;;8.70;72.10;8.70;96326.00;;;;5036777;28;20631;-81
2022/11/08 06:14:20;;;;;;;1.97;1.70;;;8.80;72.10;8.70;96320.00;;;;5038519;28;20256;-81
2022/11/08 06:16:47;;;;;;;2.03;1.93;;;8.70;71.90;8.70;96326.00;;;;5036755;28;20547;-81
2022/11/08 06:19:15;;;;;;;1.80;1.70;;;8.70;71.90;8.70;96327.00;;;;5035966;28;20232;-81
2022/11/08 06:21:43;;;;;;;2.60;1.60;;;8.70;72.50;8.70;96328.00;;;;5037065;28;20220;-81
2022/11/08 06:24:10;;;;;;;2.13;1.90;;;8.70;71.60;8.70;96331.00;;;;5036884;28;20283;-81
2022/11/08 06:26:38;;;;;;;2.10;1.83;;;8.70;71.50;8.70;96321.00;;;;5037733;28;20248;-80
2022/11/08 06:29:05;;;;;;;2.13;1.93;;;8.70;71.70;8.70;96320.00;;;;5032604;28;20228;-80
2022/11/08 06:31:32;;;;;;;2.03;1.93;;;8.70;71.60;8.70;96324.00;;;;5033000;28;20197;-80
2022/11/08 06:33:59;;;;;;;2.00;1.80;;;8.70;71.50;8.70;96336.00;;;;5023880;28;20224;-80
2022/11/08 06:36:27;;;;;;;2.17;1.90;;;8.70;71.40;8.60;96336.00;;;;5026467;28;20206;-81
2022/11/08 06:38:56;;;;;;;2.20;1.80;;;8.70;71.40;8.60;96346.00;;;;5039094;28;20259;-80
2022/11/08 06:41:26;;;;;;;1.80;1.70;;;8.60;71.40;8.60;96338.00;;;;5035708;28;20221;-81
2022/11/08 06:43:53;;;;;;;1.83;1.73;;;8.60;71.50;8.60;96333.00;;;;5026536;28;20249;-80
2022/11/08 06:46:20;;;;;;;2.47;1.97;;;8.60;71.40;8.60;96352.00;;;;5032082;28;20275;-80
2022/11/08 06:48:47;;;;;;;2.03;1.67;;;8.60;71.40;8.60;96349.00;;;;5027004;28;20232;-80
2022/11/08 06:51:15;;;;;;;2.03;1.80;;;8.60;71.30;8.60;96342.00;;;;5021385;28;20270;-80
2022/11/08 06:53:42;;;;;;;2.10;1.90;;;8.60;71.40;8.50;96341.00;;;;5035865;28;20221;-80
2022/11/08 06:56:11;;;;;;;2.07;1.80;;;8.60;71.40;8.50;96346.00;;;;5024607;28;20221;-80
2022/11/08 06:58:38;;;;;;;2.00;1.80;;;8.60;71.50;8.50;96344.00;;;;5022403;28;20226;-80
2022/11/08 07:01:08;;;;;;;1.87;1.73;;;8.60;71.50;8.50;96340.00;;;;5027143;28;20206;-80
2022/11/08 07:03:36;;;;;;;2.50;1.90;;;8.60;71.60;8.50;96345.00;;;;5027438;28;20218;-80
2022/11/08 07:06:05;;;;;;;3.03;1.70;;;8.50;71.70;8.50;96343.00;;;;5026193;28;20315;-81
2022/11/08 07:08:33;;;;;;;4.77;2.33;;;8.50;71.70;8.50;96339.00;;;;5037500;28;20284;-81
2022/11/08 07:11:00;;;;;;;3.03;2.20;;;8.50;71.90;8.50;96344.00;;;;5061700;22;20263;-81
2022/11/08 07:13:29;;;;;;;2.10;2.00;;;8.50;71.90;8.60;96353.00;;;;5048437;28;20220;-81
2022/11/08 07:15:59;;;;;;;2.27;2.07;;;8.60;72.20;8.60;96354.00;;;;5046357;28;20197;-81
2022/11/08 07:18:27;;;;;;;2.03;1.83;;;8.60;72.30;8.60;96345.00;;;;5049935;28;20537;-81
2022/11/08 07:20:59;;;;;;;2.47;1.90;;;8.60;72.40;8.60;96351.00;;;;5043168;28;20635;-81
2022/11/08 07:23:27;;;;;;;2.47;1.80;;;8.60;72.70;8.70;96341.00;;;;5043989;28;20201;-81
2022/11/08 07:25:54;;;;;;;2.20;2.00;;;8.60;72.90;8.70;96362.00;;;;5043553;28;20643;-81
2022/11/08 07:28:22;;;;;;;1.83;1.63;;;8.60;73.20;8.80;96349.00;;;;5047021;28;20205;-80
2022/11/08 07:30:51;;;;;;;2.03;1.93;;;8.70;73.60;8.80;96356.00;;;;5046142;28;20201;-81
2022/11/08 07:33:18;;;;;;;2.00;1.90;;;8.70;74.00;8.90;96348.00;;;;5049970;28;20220;-80
2022/11/08 07:35:47;;;;;;;2.07;1.97;;;8.80;74.10;8.90;96347.00;;;;5045896;28;20223;-80
2022/11/08 07:38:14;;;;;;;3.13;2.10;;;8.80;74.30;9.00;96348.00;;;;5046432;28;20229;-81
2022/11/08 07:40:41;;;;;;;1.80;1.70;;;8.90;74.50;9.10;96352.00;;;;5052689;28;20201;-81
2022/11/08 07:43:09;;;;;;;1.87;1.60;;;8.90;74.60;9.10;96353.00;;;;5051254;28;20239;-81
2022/11/08 07:45:36;;;;;;;1.70;1.60;;;9.00;74.70;9.20;96357.00;;;;5049804;28;20212;-81
2022/11/08 07:48:07;;;;;;;1.37;1.27;;;9.00;74.70;9.20;96353.00;;;;5049672;28;20252;-80
2022/11/08 07:50:35;;;;;;;2.00;1.80;;;9.10;74.90;9.30;96355.00;;;;5045961;28;20761;-81
2022/11/08 07:53:02;;;;;;;1.70;1.60;;;9.20;75.00;9.40;96356.00;;;;5043302;28;20244;-79
2022/11/08 07:55:29;;;;;;;2.07;1.70;;;9.20;75.10;9.40;96347.00;;;;5045887;28;20692;-81
2022/11/08 07:58:00;;;;;;;1.77;1.67;;;9.30;75.20;9.50;96353.00;;;;5051083;28;20231;-81
2022/11/08 08:00:29;;;;;;;1.70;1.60;;;9.30;75.20;9.60;96355.00;;;;5048695;28;20205;-81
2022/11/08 08:03:00;;;;;;;1.90;1.80;;;9.40;75.30;9.70;96342.00;;;;5049758;28;20207;-80
2022/11/08 08:05:37;;;;;;;2.10;1.90;;;9.50;75.50;9.80;96350.00;;;;5045988;28;20217;-81
2022/11/08 08:08:06;;;;;;;1.80;1.70;;;9.60;75.60;9.90;96351.00;;;;5050139;28;20212;-81
2022/11/08 08:10:33;;;;;;;1.93;1.60;;;9.60;75.70;10.00;96343.00;;;;5049355;28;20782;-81
2022/11/08 08:13:01;;;;;;;3.30;1.90;;;9.70;75.70;10.10;96343.00;;;;5046635;28;20201;-81
2022/11/08 08:15:29;;;;;;;1.70;1.60;;;9.80;75.80;10.20;96340.00;;;;5045165;28;20241;-81
2022/11/08 08:17:59;;;;;;;2.37;2.10;;;9.90;76.70;10.30;96336.00;;;;5052129;28;20197;-79
2022/11/08 08:20:26;;;;;;;1.70;1.60;;;10.00;76.00;10.40;96337.00;;;;5043986;28;20213;-81
2022/11/08 08:22:54;;;;;;;1.80;1.70;;;10.10;76.10;10.50;96344.00;;;;5048976;28;20228;-81
2022/11/08 08:25:22;;;;;;;2.13;1.97;;;10.20;76.20;10.60;96345.00;;;;5053625;28;20229;-80
2022/11/08 08:27:49;;;;;;;1.70;1.60;;;10.20;76.10;10.70;96341.00;;;;5050232;28;20253;-80
2022/11/08 08:30:18;;;;;;;1.90;1.73;;;10.30;76.20;10.80;96340.00;;;;5051407;28;20201;-81
2022/11/08 08:32:46;;;;;;;1.67;1.57;;;10.40;76.10;10.90;96341.00;;;;5052588;28;20197;-80
2022/11/08 08:35:14;;;;;;;2.10;1.60;;;10.60;76.10;11.00;96349.00;;;;5054074;28;20645;-81
2022/11/08 08:37:41;;;;;;;1.80;1.70;;;10.60;76.10;11.10;96337.00;;;;5056962;28;20205;-81
2022/11/08 08:40:11;;;;;;;1.87;1.77;;;10.70;76.20;11.20;96342.00;;;;5051025;28;20273;-81
2022/11/08 08:42:38;;;;;;;1.70;1.60;;;10.80;76.30;11.30;96338.00;;;;5051757;28;20215;-80
2022/11/08 08:45:10;;;;;;;1.80;1.70;;;10.90;76.30;11.30;96336.00;;;;5052157;28;20734;-81
2022/11/08 08:47:37;;;;;;;1.73;1.63;;;11.00;76.30;11.40;96341.00;;;;5051578;28;20682;-81
2022/11/08 08:50:05;;;;;;;1.80;1.70;;;11.10;76.20;11.50;96340.00;;;;5051380;28;20208;-81
2022/11/08 08:52:33;;;;;;;1.63;1.53;;;11.20;76.20;11.60;96344.00;;;;5056581;28;20336;-79
2022/11/08 08:55:08;;;;;;;2.50;1.60;;;11.20;76.20;11.70;96335.00;;;;5051735;28;20678;-79
2022/11/08 08:57:36;;;;;;;1.97;1.60;;;11.30;76.30;11.70;96343.00;;;;5049589;28;20201;-80
2022/11/08 09:00:18;;;;;;;1.70;1.60;;;11.40;76.30;11.80;96342.00;;;;5055477;28;20228;-80
2022/11/08 09:02:45;;;;;;;1.60;1.50;;;11.50;76.30;11.90;96346.00;;;;5050730;28;20724;-82
2022/11/08 09:05:45;;;;;;;1.50;1.40;;;11.60;76.30;12.00;96355.00;;;;5048458;28;20624;-82
2022/11/08 09:08:14;;;;;;;1.63;1.53;;;11.70;76.60;12.10;96342.00;;;;5046796;28;20224;-83
2022/11/08 09:10:42;;;;;;;2.17;1.73;;;11.70;76.30;12.20;96343.00;;;;5047836;28;20201;-83
2022/11/08 09:13:13;;;;;;;1.57;1.47;;;11.80;76.40;12.30;96342.00;;;;5044988;28;20552;-82
2022/11/08 09:15:40;;;;;;;2.33;1.80;;;11.90;76.50;12.40;96349.00;;;;5051414;28;20205;-82
2022/11/08 09:18:08;;;;;;;1.73;1.63;;;12.00;76.30;12.50;96345.00;;;;5044043;28;20282;-83
2022/11/08 09:20:35;;;;;;;1.77;1.67;;;12.10;76.20;12.60;96352.00;;;;5045585;28;20201;-82
2022/11/08 09:23:03;;;;;;;1.70;1.60;;;12.20;76.20;12.70;96340.00;;;;5046695;28;20236;-82
2022/11/08 09:25:31;;;;;;;1.77;1.60;;;12.30;76.30;12.80;96348.00;;;;5043353;28;20308;-82
2022/11/08 09:27:58;;;;;;;2.20;1.70;;;12.40;76.10;13.00;96352.00;;;;5046594;28;20285;-82
2022/11/08 09:30:27;;;;;;;1.80;1.70;;;12.50;76.00;13.20;96354.00;;;;5049478;28;20636;-82
2022/11/08 09:32:54;;;;;;;2.93;1.77;;;12.70;76.60;13.40;96355.00;;;;5049097;28;20272;-82
2022/11/08 09:35:22;;;;;;;4.40;1.80;;;12.90;77.10;13.70;96356.00;;;;5047908;28;20274;-82
2022/11/08 09:37:49;;;;;;;10.30;2.10;;;13.10;77.20;13.90;96360.00;;;;5044707;28;20228;-84
2022/11/08 09:40:19;;;;;;;2.33;1.90;;;13.30;77.00;14.10;96359.00;;;;5045746;28;20232;-81
2022/11/08 09:43:14;;;;;;;2.00;1.90;;;13.50;77.20;14.30;96356.00;;;;5045283;28;20304;-82
2022/11/08 09:45:46;;;;;;;1.70;1.60;;;13.80;77.00;14.50;96368.00;;;;5044406;28;20247;-82
2022/11/08 09:48:24;;;;;;;1.80;1.70;;;14.00;77.10;14.70;96364.00;;;;5051723;28;20228;-83
2022/11/08 09:50:54;;;;;;;1.93;1.50;;;14.20;77.40;14.80;96350.00;;;;5046814;28;20253;-84
2022/11/08 09:53:34;;;;;;;1.80;1.60;;;14.40;75.90;14.90;96363.00;;;;5049596;28;20217;-83
2022/11/08 09:56:11;;;;;;;1.70;1.60;;;14.60;75.20;15.10;96366.00;;;;5047256;28;20216;-83
2022/11/08 09:58:50;;;;;;;1.70;1.60;;;14.80;75.10;15.30;96358.00;;;;5047120;28;20408;-82
2022/11/08 10:01:19;;;;;;;1.73;1.63;;;15.00;75.30;15.50;96363.00;;;;5045927;28;20280;-82
2022/11/08 10:03:49;;;;;;;1.87;1.70;;;15.20;75.40;15.60;96370.00;;;;5048301;28;20252;-83
2022/11/08 10:06:58;;;;;;;1.60;1.50;;;15.30;74.80;15.70;96365.00;;;;5045593;28;20665;-83
2022/11/08 10:09:54;;;;;;;2.13;2.03;;;15.50;73.80;15.90;96379.00;;;;5046666;28;20213;-81
2022/11/08 10:12:34;;;;;;;1.80;1.70;;;15.70;73.80;16.00;96371.00;;;;5039969;28;20240;-82
2022/11/08 10:15:21;;;;;;;1.73;1.63;;;15.80;73.80;16.20;96371.00;;;;5050310;28;20259;-83
2022/11/08 10:18:39;;;;;;;1.50;1.40;;;16.00;73.50;16.50;96357.00;;;;5051729;28;20668;-82
2022/11/08 10:21:21;;;;;;;1.80;1.27;;;16.20;72.90;16.70;96368.00;;;;5045927;28;20194;-83
2022/11/08 10:24:02;;;;;;;1.37;1.27;;;16.50;73.60;16.80;96360.00;;;;5054149;28;20220;-83
2022/11/08 10:26:37;;;;;;;1.33;1.23;;;16.60;72.40;17.00;96367.00;;;;5046651;28;20196;-83
2022/11/08 10:29:14;;;;;;;1.50;1.30;;;16.80;71.20;17.10;96361.00;;;;5046692;28;20212;-81
2022/11/08 10:31:46;;;;;;;2.30;1.30;;;16.90;71.40;17.20;96358.00;;;;5048698;28;20216;-81
2022/11/08 10:34:20;;;;;;;1.10;1.03;;;16.90;70.60;17.30;96354.00;;;;5046712;28;20289;-81
2022/11/08 10:36:51;;;;;;;1.00;1.00;;;17.00;70.30;17.30;96358.00;;;;5047782;28;20231;-83
2022/11/08 10:39:24;;;;;;;2.00;1.13;;;17.10;69.90;17.40;96358.00;;;;5049128;28;20189;-82
2022/11/08 10:42:02;;;;;;;1.83;1.20;;;17.10;69.90;17.40;96344.00;;;;5045331;28;20204;-82
2022/11/08 10:44:29;;;;;;;1.60;1.13;;;17.20;68.50;17.50;96342.00;;;;5041033;28;20229;-83
2022/11/08 10:47:01;;;;;;;1.10;1.03;;;17.20;68.60;17.50;96345.00;;;;5048511;28;20232;-82
2022/11/08 10:49:32;;;;;;;1.20;1.10;;;17.20;68.40;17.50;96346.00;;;;5047766;28;20193;-82
2022/11/08 10:52:09;;;;;;;3.60;1.40;;;17.20;68.40;17.50;96345.00;;;;5049167;28;20221;-82
2022/11/08 10:54:51;;;;;;;1.20;1.10;;;17.20;67.90;17.50;96343.00;;;;5045661;28;20252;-82
2022/11/08 10:57:25;;;;;;;1.17;1.10;;;17.20;67.30;17.40;96338.00;;;;5048843;28;20267;-82
2022/11/08 10:59:53;;;;;;;1.70;1.20;;;17.20;67.50;17.40;96323.00;;;;5047041;28;20688;-82
2022/11/08 11:02:26;;;;;;;1.63;1.00;;;17.20;67.70;17.50;96335.00;;;;5048218;28;20724;-82
2022/11/08 11:05:21;;;;;;;1.00;1.00;;;17.20;67.40;17.50;96329.00;;;;5044512;28;20217;-82
2022/11/08 11:08:14;;;;;;;1.43;1.20;;;17.20;67.40;17.50;96322.00;;;;5035878;28;20316;-83
2022/11/08 11:10:44;;;;;;;1.90;1.57;;;17.20;66.40;17.50;96314.00;;;;5049305;28;20213;-83
2022/11/08 11:13:14;;;;;;;2.00;1.20;;;17.20;67.00;17.50;96311.00;;;;5038066;28;20197;-82
2022/11/08 11:15:47;;;;;;;1.20;1.10;;;17.20;67.00;17.50;96309.00;;;;5048092;28;20711;-81
2022/11/08 11:18:26;;;;;;;0.97;0.90;;;17.20;66.80;17.50;96319.00;;;;5048573;28;20193;-83
2022/11/08 11:21:18;;;;;;;1.17;0.90;;;17.20;66.80;17.40;96322.00;;;;5048898;28;20243;-82
2022/11/08 11:23:54;;;;;;;0.93;0.93;;;17.20;66.00;17.40;96316.00;;;;5048998;28;20311;-82
2022/11/08 11:26:30;;;;;;;1.23;1.10;;;17.20;66.70;17.50;96314.00;;;;5038678;28;20273;-82
2022/11/08 11:29:22;;;;;;;1.10;1.00;;;17.10;66.70;17.40;96310.00;;;;5047157;28;20652;-81
2022/11/08 11:31:52;;;;;;;1.00;1.00;;;17.20;66.30;17.40;96318.00;;;;5043763;28;20259;-82
2022/11/08 11:34:47;;;;;;;1.30;1.20;;;17.10;66.60;17.50;96318.00;;;;5048219;28;20229;-83
2022/11/08 11:37:39;;;;;;;1.17;1.00;;;17.10;66.50;17.50;96314.00;;;;5043321;28;20307;-82
2022/11/08 11:40:24;;;;;;;0.90;0.90;;;17.10;66.50;17.50;96306.00;;;;5039931;28;20280;-83
2022/11/08 11:43:04;;;;;;;1.50;1.30;;;17.20;66.10;17.50;96309.00;;;;5051360;28;20200;-83
2022/11/08 11:45:43;;;;;;;0.73;0.73;;;17.10;65.90;17.50;96296.00;;;;5044075;28;20295;-83